Gaz Palmyra — 3FCO4 — position and weather

sailwx.info

Track history (hours):
 
Tides and Currents Weather Stations Pressure Air Temp Water Temp Dewpoint Dewpoint Depression Visibility Wind Speed Wind Dir Waves Ship Positions

Gaz Palmyra

Last reported at 2016-Apr-27 04:30 UTC. Time now 2016-May-01 02:20 UTC.
Position N 36°57' E 002°55'.

Length 137 m; draft 8.2 m.

Type: Ship (hazmat cat C). MMSI: 353247000.

Date/timePositionNaut miles runAvg speedWind from/ knotsBaromVisibWave heightAir tempDewpointWater temp
2016-Apr-27 04:30N 36°57' E 002°55'30 9.9
2016-Apr-27 01:27N 36°53' E 002°17'9 9.4
2016-Apr-27 00:32N 36°52' E 002°07'9 9.2
2016-Apr-26 23:34N 36°52' E 001°56'22 9.8
2016-Apr-26 21:17N 36°48' E 001°28'710.1
2016-Apr-26 20:33N 36°47' E 001°19'1110.8
2016-Apr-26 19:33N 36°46' E 001°05'1010.5
2016-Apr-26 18:33N 36°42' E 000°53'1111.2
2016-Apr-26 17:33N 36°36' E 000°42'1211.3
2016-Apr-26 16:31N 36°30' E 000°30'1111.4
2016-Apr-26 15:33N 36°21' E 000°21'1010.2
2016-Apr-26 14:33N 36°14' E 000°12'1010.0
2016-Apr-26 13:33N 36°07' E 000°03'1010.3
2016-Apr-26 12:33N 35°59' W 000°05'10 9.7
2016-Apr-26 11:33N 35°52' W 000°13'  
2016-Apr-23 09:30N 35°60' W 000°11'1 0.5
2016-Apr-23 06:33N 35°58' W 000°11'1 0.3
2016-Apr-23 04:32N 35°58' W 000°11'0 0.2
2016-Apr-23 03:24N 35°58' W 000°11'0 0.2
2016-Apr-23 02:20N 35°58' W 000°12'3 0.4
2016-Apr-22 19:12N 35°57' W 000°15'0 0.6
2016-Apr-22 18:33N 35°58' W 000°15'1 0.6
2016-Apr-22 17:32N 35°58' W 000°14'1 0.7
2016-Apr-22 16:34N 35°59' W 000°14'1 0.8
2016-Apr-22 15:08N 35°60' W 000°14'2 0.9
2016-Apr-22 13:15N 36°01' W 000°14'1 0.7
2016-Apr-22 12:21N 36°02' W 000°14'1 1.3
2016-Apr-22 11:33N 36°01' W 000°14'1 0.6
2016-Apr-22 10:34N 36°00' W 000°14'1 0.3
2016-Apr-22 07:27N 36°01' W 000°13'1 0.4
2016-Apr-22 05:33N 36°02' W 000°13'5 5.2
2016-Apr-22 04:33N 36°00' W 000°19'0 0.1
2016-Apr-22 00:33N 36°00' W 000°19'1 0.6
2016-Apr-21 22:21N 35°60' W 000°18'1 0.8
2016-Apr-21 21:33N 35°60' W 000°17'1 0.7
2016-Apr-21 20:25N 35°60' W 000°16'1 0.8
2016-Apr-21 19:31N 36°00' W 000°15'1 0.8
2016-Apr-21 18:33N 36°01' W 000°14'1 0.7
2016-Apr-21 17:33N 36°01' W 000°14'  
Track history (hours):
 
Tides and Currents Weather Stations Pressure Air Temp Water Temp Dewpoint Dewpoint Depression Visibility Wind Speed Wind Dir Waves Ship Positions

Gaz Palmyra

Last reported at 2016-Apr-27 04:30 UTC. Time now 2016-May-01 02:20 UTC.
Position N 36°57' E 002°55'.

Length 137 m; draft 8.2 m.

Type: Ship (hazmat cat C). MMSI: 353247000.

Date/timePositionNaut miles runAvg speedWind from/ knotsBaromVisibWave heightAir tempDewpointWater temp
2016-Apr-27 04:30N 36°57' E 002°55'30 9.9
2016-Apr-27 01:27N 36°53' E 002°17'9 9.4
2016-Apr-27 00:32N 36°52' E 002°07'9 9.2
2016-Apr-26 23:34N 36°52' E 001°56'22 9.8
2016-Apr-26 21:17N 36°48' E 001°28'710.1
2016-Apr-26 20:33N 36°47' E 001°19'1110.8
2016-Apr-26 19:33N 36°46' E 001°05'1010.5
2016-Apr-26 18:33N 36°42' E 000°53'1111.2
2016-Apr-26 17:33N 36°36' E 000°42'1211.3
2016-Apr-26 16:31N 36°30' E 000°30'1111.4
2016-Apr-26 15:33N 36°21' E 000°21'1010.2
2016-Apr-26 14:33N 36°14' E 000°12'1010.0
2016-Apr-26 13:33N 36°07' E 000°03'1010.3
2016-Apr-26 12:33N 35°59' W 000°05'10 9.7
2016-Apr-26 11:33N 35°52' W 000°13'  
2016-Apr-23 09:30N 35°60' W 000°11'1 0.5
2016-Apr-23 06:33N 35°58' W 000°11'1 0.3
2016-Apr-23 04:32N 35°58' W 000°11'0 0.2
2016-Apr-23 03:24N 35°58' W 000°11'0 0.2
2016-Apr-23 02:20N 35°58' W 000°12'3 0.4
2016-Apr-22 19:12N 35°57' W 000°15'0 0.6
2016-Apr-22 18:33N 35°58' W 000°15'1 0.6
2016-Apr-22 17:32N 35°58' W 000°14'1 0.7
2016-Apr-22 16:34N 35°59' W 000°14'1 0.8
2016-Apr-22 15:08N 35°60' W 000°14'2 0.9
2016-Apr-22 13:15N 36°01' W 000°14'1 0.7
2016-Apr-22 12:21N 36°02' W 000°14'1 1.3
2016-Apr-22 11:33N 36°01' W 000°14'1 0.6
2016-Apr-22 10:34N 36°00' W 000°14'1 0.3
2016-Apr-22 07:27N 36°01' W 000°13'1 0.4
2016-Apr-22 05:33N 36°02' W 000°13'5 5.2
2016-Apr-22 04:33N 36°00' W 000°19'0 0.1
2016-Apr-22 00:33N 36°00' W 000°19'1 0.6
2016-Apr-21 22:21N 35°60' W 000°18'1 0.8
2016-Apr-21 21:33N 35°60' W 000°17'1 0.7
2016-Apr-21 20:25N 35°60' W 000°16'1 0.8
2016-Apr-21 19:31N 36°00' W 000°15'1 0.8
2016-Apr-21 18:33N 36°01' W 000°14'1 0.7
2016-Apr-21 17:33N 36°01' W 000°14'  

Dump ship's entire track history